Flight Track Log - Related Links

Times and Time Zones

All times are in EDT time to prevent confusion due to time zone crossing. See the UAL1426 flight status page for this flight to view local times or setup timezone preferences in your user account.

Time Position Orientation Groundspeed Altitude Reporting Facility
EDT Latitude Longitude Course Direction KTS MPH feet Rate Location/Type
Mon 09:04:31 AM 33.9360 -118.4130 263° West 163 188 700  Level FlightAware ADS-B
Mon 09:04:52 AM 33.9340 -118.4340 263° West 179 206 1,400 1,756 Climbing FlightAware ADS-B
Mon 09:05:12 AM 33.9290 -118.4550 254° West 214 246 1,900 1,714 Climbing FlightAware ADS-B
Mon 09:05:20 AM 33.9260 -118.4610 239° Southwest 217 250 2,200 3,429 Climbing FlightAware ADS-B
Mon 09:05:40 AM 33.9120 -118.4810 230° Southwest 217 250 3,500 2,857 Climbing FlightAware ADS-B
Mon 09:06:02 AM 33.8980 -118.5000 228° Southwest 245 282 4,200 1,846 Climbing FlightAware ADS-B
Mon 09:06:06 AM 33.8940 -118.5040 220° Southwest 252 290 4,300 1,714 Climbing FlightAware ADS-B
Mon 09:06:16 AM 33.8830 -118.5100 204° Southwest 264 304 4,600 3,000 Climbing FlightAware ADS-B
Mon 09:06:24 AM 33.8710 -118.5120 188° South 267 307 5,200 3,000 Climbing FlightAware ADS-B
Mon 09:06:44 AM 33.8480 -118.5140 184° South 279 321 6,000 2,927 Climbing FlightAware ADS-B
Mon 09:07:05 AM 33.8180 -118.5150 182° South 282 325 7,200 3,300 Climbing FlightAware ADS-B
Mon 09:07:24 AM 33.7940 -118.5170 184° South 289 333 8,200 3,257 Climbing FlightAware ADS-B
Mon 09:07:40 AM 33.7710 -118.5180 182° South 290 334 9,100 2,870 Climbing FlightAware ADS-B
Mon 09:08:10 AM 33.7340 -118.5200 183° South 300 345 10,400 2,464 Climbing FlightAware ADS-B
Mon 09:08:36 AM 33.6970 -118.5020 158° South 322 371 11,400 2,133 Climbing FlightAware ADS-B
Mon 09:08:55 AM 33.6820 -118.4730 122° Southeast 338 389 12,000 2,679 Climbing FlightAware ADS-B
Mon 09:09:32 AM 33.6770 -118.4030 95° East 344 396 13,900 2,870 Climbing FlightAware ADS-B
Mon 09:10:04 AM 33.6740 -118.3410 93° East 359 413 15,300 2,500 Climbing FlightAware ADS-B
Mon 09:10:44 AM 33.6710 -118.2610 93° East 376 433 16,900 2,055 Climbing FlightAware ADS-B
Mon 09:11:17 AM 33.6710 -118.1900 90° East 401 461 17,800 1,592 Climbing FlightAware ADS-B
Mon 09:11:33 AM 33.6700 -118.1530 92° East 410 472 18,200 2,182 Climbing FlightAware ADS-B
Mon 09:12:23 AM 33.6690 -118.0460 91° East 416 479 20,200 2,200 Climbing FlightAware ADS-B
Mon 09:13:03 AM 33.6680 -117.9460 91° East 432 497 21,500 1,704 Climbing FlightAware ADS-B
Mon 09:13:44 AM 33.6660 -117.8520 91° East 445 512 22,500 1,769 Climbing FlightAware ADS-B
Mon 09:14:21 AM 33.6650 -117.7540 91° East 451 519 23,800 2,080 Climbing FlightAware ADS-B
Mon 09:14:59 AM 33.6630 -117.6610 91° East 453 521 25,100 1,886 Climbing FlightAware ADS-B
Mon 09:15:31 AM 33.6620 -117.5800 91° East 456 525 26,000 1,676 Climbing FlightAware ADS-B
Mon 09:16:07 AM 33.6600 -117.4870 91° East 462 532 27,000 1,457 Climbing FlightAware ADS-B
Mon 09:16:41 AM 33.6580 -117.3980 92° East 470 541 27,700 1,667 Climbing FlightAware ADS-B
Mon 09:17:19 AM 33.6570 -117.3000 91° East 467 537 29,000 1,913 Climbing FlightAware ADS-B
Mon 09:17:50 AM 33.6550 -117.2220 92° East 464 534 29,900 1,324 Climbing FlightAware ADS-B
Mon 09:18:27 AM 33.6530 -117.1270 91° East 473 544 30,500 1,151 Climbing FlightAware ADS-B
Mon 09:19:03 AM 33.6510 -117.0290 91° East 479 551 31,300 1,343 Climbing FlightAware ADS-B
Mon 09:19:34 AM 33.6460 -116.9490 94° East 479 551 32,000 1,475 Climbing FlightAware ADS-B
Mon 09:20:04 AM 33.6360 -116.8730 99° East 475 547 32,800 1,688 Climbing FlightAware ADS-B
Mon 09:20:38 AM 33.6250 -116.7800 98° East 471 542 33,800 1,500 Climbing FlightAware ADS-B
Mon 09:21:16 AM 33.6120 -116.6820 99° East 471 542 34,600 1,216 Climbing FlightAware ADS-B
Mon 09:21:52 AM 33.6000 -116.5920 99° East 469 540 35,300 1,059 Climbing FlightAware ADS-B
Mon 09:22:24 AM 33.5890 -116.5090 99° East 471 542 35,800 971 Climbing FlightAware ADS-B
Mon 09:23:00 AM 33.5780 -116.4180 98° East 472 543 36,400 1,000 Climbing FlightAware ADS-B
Mon 09:23:36 AM 33.5650 -116.3200 99° East 473 544 37,000 1,000 Climbing FlightAware ADS-B
Mon 09:24:12 AM 33.5520 -116.2270 99° East 472 543 37,600 882 Climbing FlightAware ADS-B
Mon 09:24:44 AM 33.5420 -116.1450 98° East 471 542 38,000 870 Climbing FlightAware ADS-B
Mon 09:25:21 AM 33.5290 -116.0510 99° East 469 540 38,600 857 Climbing FlightAware ADS-B
Mon 09:25:54 AM 33.5170 -115.9650 99° East 470 541 39,000 312 Climbing FlightAware ADS-B
Mon 09:26:38 AM 33.5030 -115.8580 99° East 470 541 39,000  Level FlightAware ADS-B
Mon 09:27:08 AM 33.4930 -115.7850 99° East 470 541 39,000  Level FlightAware ADS-B
Mon 09:27:44 AM 33.4800 -115.6870 99° East 471 542 39,000  Level FlightAware ADS-B
Mon 09:28:23 AM 33.4650 -115.5800 100° East 473 544 39,000  Level FlightAware ADS-B
Mon 09:29:00 AM 33.4520 -115.4860 99° East 474 545 39,000  Level FlightAware ADS-B
Mon 09:29:48 AM 33.4350 -115.3640 99° East 473 544 39,000  Level FlightAware ADS-B
Mon 09:30:23 AM 33.4230 -115.2760 99° East 474 545 39,000  Level FlightAware ADS-B
Mon 09:30:53 AM 33.4120 -115.1990 100° East 473 544 39,000  Level FlightAware ADS-B
Mon 09:31:28 AM 33.4000 -115.1140 100° East 474 545 39,000  Level FlightAware ADS-B
Mon 09:32:07 AM 33.3880 -115.0250 99° East 474 545 39,000  Level FlightAware ADS-B
Mon 09:32:47 AM 33.3740 -114.9300 100° East 474 545 39,000  Level FlightAware ADS-B
Mon 09:33:22 AM 33.3590 -114.8280 100° East 473 544 39,000  Level FlightAware ADS-B
Mon 09:33:57 AM 33.3470 -114.7440 100° East 473 544 39,000  Level FlightAware ADS-B
Mon 09:34:54 AM 33.3250 -114.5890 100° East 473 544 39,000  Level FlightAware ADS-B
Mon 09:35:28 AM 33.3160 -114.5140 98° East 473 544 39,000  Level FlightAware ADS-B
Mon 09:36:05 AM 33.3050 -114.4330 99° East 473 544 39,000  Level FlightAware ADS-B
Mon 09:36:38 AM 33.2850 -114.3190 102° East 474 545 39,000  Level FlightAware ADS-B
Mon 09:37:18 AM 33.2680 -114.2050 100° East 475 547 39,000  Level FlightAware ADS-B
Mon 09:37:51 AM 33.2550 -114.1170 100° East 476 548 39,000  Level FlightAware ADS-B
Mon 09:38:27 AM 33.2410 -114.0220 100° East 478 550 39,000  Level FlightAware ADS-B
Mon 09:38:59 AM 33.2280 -113.9400 101° East 479 551 39,000  Level FlightAware ADS-B
Mon 09:39:35 AM 33.2140 -113.8470 100° East 480 552 39,000  Level FlightAware ADS-B
Mon 09:40:11 AM 33.2000 -113.7530 100° East 480 552 39,000  Level FlightAware ADS-B
Mon 09:40:44 AM 33.1910 -113.6950 100° East 480 552 39,000  Level FlightAware ADS-B
Mon 09:41:20 AM 33.1760 -113.6020 101° East 478 550 39,000  Level FlightAware ADS-B
Mon 09:41:54 AM 33.1630 -113.5170 100° East 477 549 39,000  Level FlightAware ADS-B
Mon 09:42:33 AM 33.1430 -113.3860 100° East 476 548 39,000  Level FlightAware ADS-B
Mon 09:43:05 AM 33.1310 -113.3060 100° East 477 549 39,000  Level FlightAware ADS-B
Mon 09:43:41 AM 33.1150 -113.2090 101° East 476 548 39,000  Level FlightAware ADS-B
Mon 09:44:13 AM 33.1030 -113.1280 100° East 476 548 39,000  Level FlightAware ADS-B
Mon 09:44:53 AM 33.0860 -113.0240 101° East 476 548 39,000  Level FlightAware ADS-B
Mon 09:45:25 AM 33.0730 -112.9410 101° East 476 548 39,000  Level FlightAware ADS-B
Mon 09:46:01 AM 33.0580 -112.8500 101° East 476 548 39,000  Level FlightAware ADS-B
Mon 09:46:37 AM 33.0430 -112.7580 101° East 475 547 39,000  Level FlightAware ADS-B
Mon 09:47:11 AM 33.0290 -112.6690 101° East 474 545 39,000  Level FlightAware ADS-B
Mon 09:47:45 AM 33.0150 -112.5830 101° East 474 545 39,000  Level FlightAware ADS-B
Mon 09:48:21 AM 33.0000 -112.4890 101° East 474 545 39,000  Level FlightAware ADS-B
Mon 09:48:55 AM 32.9860 -112.4030 101° East 474 545 39,000  Level FlightAware ADS-B
Mon 09:49:29 AM 32.9710 -112.3160 102° East 474 545 39,000  Level FlightAware ADS-B
Mon 09:50:05 AM 32.9560 -112.2230 101° East 474 545 39,000  Level FlightAware ADS-B
Mon 09:50:43 AM 32.9400 -112.1270 101° East 473 544 39,000  Level FlightAware ADS-B
Mon 09:51:13 AM 32.9270 -112.0540 102° East 472 543 39,000  Level FlightAware ADS-B
Mon 09:51:50 AM 32.9120 -111.9580 101° East 474 545 39,000  Level FlightAware ADS-B
Mon 09:52:27 AM 32.8950 -111.8630 102° East 472 543 39,000  Level FlightAware ADS-B
Mon 09:53:01 AM 32.8810 -111.7760 101° East 471 542 39,000  Level FlightAware ADS-B
Mon 09:53:33 AM 32.8670 -111.6970 102° East 471 542 39,000  Level FlightAware ADS-B
Mon 09:54:09 AM 32.8510 -111.6040 102° East 471 542 39,000  Level FlightAware ADS-B
Mon 09:54:46 AM 32.8350 -111.5100 101° East 472 543 39,000  Level FlightAware ADS-B
Mon 09:55:16 AM 32.8220 -111.4340 101° East 471 542 39,000  Level FlightAware ADS-B
Mon 09:55:56 AM 32.8050 -111.3340 101° East 473 544 39,000  Level FlightAware ADS-B
Mon 09:56:32 AM 32.7880 -111.2410 102° East 476 548 39,000  Level FlightAware ADS-B
Mon 09:57:08 AM 32.7720 -111.1490 102° East 478 550 39,000  Level FlightAware ADS-B
Mon 09:57:39 AM 32.7590 -111.0740 102° East 477 549 39,000  Level FlightAware ADS-B
Mon 09:58:14 AM 32.7430 -110.9810 102° East 477 549 39,000  Level FlightAware ADS-B
Mon 09:58:50 AM 32.7260 -110.8870 102° East 477 549 39,000  Level FlightAware ADS-B
Mon 09:59:26 AM 32.7100 -110.7950 102° East 476 548 39,000  Level FlightAware ADS-B
Mon 09:59:59 AM 32.6950 -110.7130 102° East 475 547 39,000  Level FlightAware ADS-B
Mon 10:00:36 AM 32.6780 -110.6170 102° East 475 547 39,000  Level FlightAware ADS-B
Mon 10:01:08 AM 32.6630 -110.5360 102° East 475 547 39,000  Level FlightAware ADS-B
Mon 10:01:46 AM 32.6470 -110.4450 102° East 474 545 39,000  Level FlightAware ADS-B
Mon 10:02:22 AM 32.6290 -110.3480 102° East 474 545 39,000  Level FlightAware ADS-B
Mon 10:02:58 AM 32.6120 -110.2560 102° East 474 545 39,000  Level FlightAware ADS-B
Mon 10:03:30 AM 32.5980 -110.1760 102° East 475 547 39,000  Level FlightAware ADS-B
Mon 10:04:06 AM 32.5810 -110.0850 102° East 475 547 39,000  Level FlightAware ADS-B
Mon 10:04:38 AM 32.5660 -110.0030 102° East 476 548 39,000  Level FlightAware ADS-B
Mon 10:05:14 AM 32.5490 -109.9120 102° East 478 550 39,000  Level FlightAware ADS-B
Mon 10:05:48 AM 32.5330 -109.8250 102° East 478 550 39,000  Level FlightAware ADS-B
Mon 10:06:26 AM 32.5140 -109.7270 103° East 478 550 39,000  Level FlightAware ADS-B
Mon 10:07:02 AM 32.4970 -109.6340 102° East 479 551 39,000  Level FlightAware ADS-B
Mon 10:07:34 AM 32.4820 -109.5540 103° East 479 551 39,000  Level FlightAware ADS-B
Mon 10:08:10 AM 32.4640 -109.4630 103° East 480 552 39,000  Level FlightAware ADS-B
Mon 10:08:46 AM 32.4470 -109.3690 102° East 481 554 39,000  Level FlightAware ADS-B
Mon 10:09:18 AM 32.4310 -109.2880 103° East 481 554 39,000  Level FlightAware ADS-B
Mon 10:09:56 AM 32.4120 -109.1890 103° East 482 555 39,000  Level FlightAware ADS-B
Mon 10:10:32 AM 32.3940 -109.0970 103° East 482 555 39,000  Level FlightAware ADS-B
Mon 10:11:29 AM 32.3710 -108.9740 102° East 481 554 39,000  Level FlightAware ADS-B
Mon 10:12:00 AM 32.3510 -108.8740 103° East 480 552 39,000  Level FlightAware ADS-B
Mon 10:12:38 AM 32.3320 -108.7750 103° East 479 551 39,000  Level FlightAware ADS-B
Mon 10:13:12 AM 32.3150 -108.6890 103° East 478 550 39,000  Level FlightAware ADS-B
Mon 10:13:54 AM 32.2970 -108.5990 103° East 478 550 39,000  Level FlightAware ADS-B
Mon 10:14:30 AM 32.2820 -108.5210 103° East 478 550 39,000  Level FlightAware ADS-B
Mon 10:15:06 AM 32.2670 -108.4430 103° East 478 550 39,000  Level FlightAware ADS-B
Mon 10:15:42 AM 32.2520 -108.3650 103° East 478 550 39,000  Level FlightAware ADS-B
Mon 10:16:18 AM 32.2360 -108.2870 104° East 478 550 39,000  Level FlightAware ADS-B
Mon 10:16:54 AM 32.2210 -108.2090 103° East 478 550 39,000  Level FlightAware ADS-B
Mon 10:17:30 AM 32.2060 -108.1310 103° East 478 550 39,000  Level FlightAware ADS-B
Mon 10:18:06 AM 32.1910 -108.0530 103° East 478 550 39,000  Level FlightAware ADS-B
Mon 10:18:43 AM 32.1750 -107.9730 103° East 478 550 39,000  Level FlightAware ADS-B
Mon 10:19:19 AM 32.1600 -107.8950 103° East 478 550 39,000  Level FlightAware ADS-B
Mon 10:19:56 AM 32.1440 -107.8150 103° East 478 550 39,000  Level FlightAware ADS-B
Mon 10:20:33 AM 32.1280 -107.7350 103° East 478 550 39,000  Level FlightAware ADS-B
Mon 10:21:07 AM 32.1140 -107.6620 103° East 478 550 39,000  Level FlightAware ADS-B
Mon 10:21:43 AM 32.0990 -107.5840 103° East 478 550 39,000  Level FlightAware ADS-B
Mon 10:22:19 AM 32.0840 -107.5060 103° East 478 550 39,000  Level FlightAware ADS-B
Mon 10:22:54 AM 32.0170 -107.2250 106° East 477 549 39,000  Level FlightAware ADS-B
Mon 10:23:24 AM 32.0010 -107.1490 104° East 478 550 39,000  Level FlightAware ADS-B
Mon 10:24:00 AM 31.9820 -107.0570 104° East 478 550 39,000  Level FlightAware ADS-B
Mon 10:24:40 AM 31.9610 -106.9560 104° East 478 550 39,000  Level FlightAware ADS-B
Mon 10:25:10 AM 31.9450 -106.8820 104° East 478 550 39,000  Level FlightAware ADS-B
Mon 10:25:45 AM 31.9260 -106.7920 104° East 479 551 39,000  Level FlightAware ADS-B
Mon 10:26:20 AM 31.9070 -106.7020 104° East 481 554 39,000  Level FlightAware ADS-B
Mon 10:26:56 AM 31.8880 -106.6140 104° East 482 555 39,000  Level FlightAware ADS-B
Mon 10:27:40 AM 31.8630 -106.5010 105° East 484 557 39,000  Level FlightAware ADS-B
Mon 10:28:11 AM 31.8460 -106.4230 104° East 485 558 39,000  Level FlightAware ADS-B
Mon 10:28:50 AM 31.8240 -106.3210 104° East 485 558 39,000  Level FlightAware ADS-B
Mon 10:29:25 AM 31.8040 -106.2330 105° East 484 557 39,000  Level FlightAware ADS-B
Mon 10:29:56 AM 31.7850 -106.1570 106° East 483 556 39,000  Level FlightAware ADS-B
Mon 10:30:35 AM 31.7600 -106.0590 107° East 482 555 39,000  Level FlightAware ADS-B
Mon 10:31:11 AM 31.7390 -105.9720 106° East 483 556 39,000  Level FlightAware ADS-B
Mon 10:31:40 AM 31.7200 -105.8940 106° East 483 556 39,000  Level FlightAware ADS-B
Mon 10:32:26 AM 31.6920 -105.7820 106° East 483 556 39,000  Level FlightAware ADS-B
Mon 10:33:00 AM 31.6700 -105.6940 106° East 484 557 39,000  Level FlightAware ADS-B
Mon 10:33:40 AM 31.6490 -105.6080 106° East 484 557 39,000  Level FlightAware ADS-B
Mon 10:34:16 AM 31.6300 -105.5310 106° East 484 557 39,000  Level FlightAware ADS-B
Mon 10:34:52 AM 31.6110 -105.4530 106° East 484 557 39,000  Level FlightAware ADS-B
Mon 10:35:27 AM 31.5930 -105.3780 106° East 484 557 39,000  Level FlightAware ADS-B
Mon 10:36:02 AM 31.5740 -105.3030 107° East 484 557 39,000  Level FlightAware ADS-B
Mon 10:36:40 AM 31.5300 -105.1450 108° East 483 556 39,000  Level FlightAware ADS-B
Mon 10:37:12 AM 31.5090 -105.0620 107° East 482 555 39,000  Level FlightAware ADS-B
Mon 10:37:55 AM 31.4850 -104.9660 106° East 482 555 39,000  Level FlightAware ADS-B
Mon 10:38:30 AM 31.4590 -104.8680 107° East 480 552 39,000  Level FlightAware ADS-B
Mon 10:39:07 AM 31.4350 -104.7780 107° East 479 551 39,000  Level FlightAware ADS-B
Mon 10:39:38 AM 31.4150 -104.6990 107° East 479 551 39,000  Level FlightAware ADS-B
Mon 10:40:15 AM 31.3920 -104.6100 107° East 478 550 39,000  Level FlightAware ADS-B
Mon 10:40:50 AM 31.3700 -104.5260 107° East 478 550 39,000  Level FlightAware ADS-B
Mon 10:41:24 AM 31.3460 -104.4370 108° East 479 551 39,000  Level FlightAware ADS-B
Mon 10:42:11 AM 31.3190 -104.3320 107° East 480 552 39,000  Level FlightAware ADS-B
Mon 10:42:43 AM 31.2950 -104.2430 107° East 479 551 39,000  Level FlightAware ADS-B
Mon 10:43:18 AM 31.2720 -104.1550 107° East 478 550 39,000  Level FlightAware ADS-B
Mon 10:43:53 AM 31.2500 -104.0720 107° East 476 548 39,000  Level FlightAware ADS-B
Mon 10:44:29 AM 31.2300 -103.9960 107° East 476 548 39,000  Level FlightAware ADS-B
Mon 10:45:03 AM 31.2110 -103.9250 107° East 476 548 39,000  Level FlightAware ADS-B
Mon 10:45:39 AM 31.1910 -103.8490 107° East 476 548 39,000  Level FlightAware ADS-B
Mon 10:46:15 AM 31.1720 -103.7740 106° East 476 548 39,000  Level FlightAware ADS-B
Mon 10:46:53 AM 31.1510 -103.6950 107° East 476 548 39,000  Level FlightAware ADS-B
Mon 10:47:29 AM 31.1310 -103.6190 107° East 476 548 39,000  Level FlightAware ADS-B
Mon 10:48:05 AM 31.1110 -103.5440 107° East 476 548 39,000  Level FlightAware ADS-B
Mon 10:48:41 AM 31.0920 -103.4690 106° East 476 548 39,000  Level FlightAware ADS-B
Mon 10:49:17 AM 31.0720 -103.3940 107° East 476 548 39,000  Level FlightAware ADS-B
Mon 10:49:53 AM 31.0520 -103.3180 107° East 476 548 39,000  Level FlightAware ADS-B
Mon 10:50:30 AM 31.0320 -103.2410 107° East 476 548 39,000  Level FlightAware ADS-B
Mon 10:51:07 AM 31.0120 -103.1640 107° East 476 548 39,000  Level FlightAware ADS-B
Mon 10:51:43 AM 30.9920 -103.0890 107° East 476 548 39,000  Level FlightAware ADS-B
Mon 10:52:20 AM 30.9720 -103.0110 107° East 476 548 39,000  Level FlightAware ADS-B
Mon 10:52:54 AM 30.9530 -102.9400 107° East 476 548 39,000  Level FlightAware ADS-B
Mon 10:53:30 AM 30.9330 -102.8650 107° East 476 548 39,000  Level FlightAware ADS-B
Mon 10:57:18 AM 30.7300 -102.1220 107° East 465 535 39,000  Level FlightAware ADS-B
Mon 10:57:50 AM 30.7100 -102.0460 107° East 466 536 39,000  Level FlightAware ADS-B
Mon 10:58:27 AM 30.6860 -101.9590 108° East 467 537 39,000  Level FlightAware ADS-B
Mon 10:59:01 AM 30.6650 -101.8790 107° East 469 540 39,000  Level FlightAware ADS-B
Mon 10:59:39 AM 30.6400 -101.7860 107° East 470 541 39,000  Level FlightAware ADS-B
Mon 11:00:07 AM 30.6230 -101.7200 107° East 471 542 39,000  Level FlightAware ADS-B
Mon 11:00:40 AM 30.6010 -101.6370 107° East 473 544 39,000  Level FlightAware ADS-B
Mon 11:01:15 AM 30.5780 -101.5540 108° East 476 548 39,000  Level FlightAware ADS-B
Mon 11:01:52 AM 30.5530 -101.4620 107° East 478 550 39,000  Level FlightAware ADS-B
Mon 11:02:26 AM 30.5300 -101.3780 108° East 477 549 39,000  Level FlightAware ADS-B
Mon 11:03:00 AM 30.5080 -101.2960 107° East 479 551 39,000  Level FlightAware ADS-B
Mon 11:03:36 AM 30.4840 -101.2070 107° East 480 552 39,000  Level FlightAware ADS-B
Mon 11:04:11 AM 30.4610 -101.1230 108° East 481 554 39,000  Level FlightAware ADS-B
Mon 11:04:45 AM 30.4380 -101.0390 108° East 482 555 39,000  Level FlightAware ADS-B
Mon 11:05:22 AM 30.4130 -100.9480 108° East 482 555 39,000  Level FlightAware ADS-B
Mon 11:05:53 AM 30.3920 -100.8720 108° East 482 555 39,000  Level FlightAware ADS-B
Mon 11:06:27 AM 30.3690 -100.7880 108° East 481 554 39,000  Level FlightAware ADS-B
Mon 11:07:07 AM 30.3420 -100.6910 108° East 481 554 39,000  Level FlightAware ADS-B
Mon 11:07:40 AM 30.3200 -100.6100 107° East 481 554 39,000  Level FlightAware ADS-B
Mon 11:08:16 AM 30.2950 -100.5220 108° East 482 555 39,000  Level FlightAware ADS-B
Mon 11:08:52 AM 30.2700 -100.4340 108° East 481 554 39,000  Level FlightAware ADS-B
Mon 11:09:25 AM 30.2480 -100.3530 107° East 481 554 39,000  Level FlightAware ADS-B
Mon 11:10:00 AM 30.2240 -100.2670 108° East 479 551 39,000  Level FlightAware ADS-B
Mon 11:10:37 AM 30.1980 -100.1770 108° East 478 550 39,000  Level FlightAware ADS-B
Mon 11:11:12 AM 30.1750 -100.0940 108° East 476 548 39,000  Level FlightAware ADS-B
Mon 11:12:01 AM 30.1410 -99.9740 108° East 474 545 39,000  Level FlightAware ADS-B
Mon 11:12:34 AM 30.1190 -99.8960 108° East 472 543 39,000  Level FlightAware ADS-B
Mon 11:13:11 AM 30.0930 -99.8070 109° East 470 541 39,000  Level FlightAware ADS-B
Mon 11:13:44 AM 30.0710 -99.7290 108° East 468 539 39,000  Level FlightAware ADS-B
Mon 11:14:19 AM 30.0470 -99.6460 108° East 467 537 39,000  Level FlightAware ADS-B
Mon 11:14:54 AM 30.0240 -99.5640 108° East 465 535 39,000  Level FlightAware ADS-B
Mon 11:15:30 AM 29.9990 -99.4790 109° East 465 535 39,000  Level FlightAware ADS-B
Mon 11:16:01 AM 29.9780 -99.4060 108° East 466 536 39,000 -176 Level FlightAware ADS-B
Mon 11:16:38 AM 29.9540 -99.3220 108° East 467 537 38,800 -658 Descending FlightAware ADS-B
Mon 11:17:14 AM 29.9280 -99.2350 109° East 471 542 38,200 -986 Descending FlightAware ADS-B
Mon 11:17:51 AM 29.8980 -99.1470 111° Southeast 471 542 37,600 -917 Descending FlightAware ADS-B
Mon 11:18:26 AM 29.8680 -99.0680 114° Southeast 471 542 37,100 -904 Descending FlightAware ADS-B
Mon 11:19:04 AM 29.8358 -98.9787 113° Southeast 472 543 36,500 -957 Descending FlightAware ADS-B
Mon 11:19:35 AM 29.8100 -98.9090 113° Southeast 463 533 36,000 -947 Descending FlightAware ADS-B
Mon 11:19:42 AM 29.8039 -98.8920 112° Southeast 466 536 35,900 -900 Descending FlightAware ADS-B
Mon 11:20:15 AM 29.7760 -98.8161 113° Southeast 464 534 35,400 -844 Descending FlightAware ADS-B
Mon 11:20:46 AM 29.7498 -98.7455 113° Southeast 468 539 35,000 -381 Descending FlightAware ADS-B
Mon 11:21:18 AM 29.7230 -98.6740 113° Southeast 466 536 35,000  Level FlightAware ADS-B
Mon 11:21:39 AM 29.7095 -98.6237 107° East 468 539 35,000  Level FlightAware ADS-B
Mon 11:21:42 AM 29.7081 -98.6164 102° East 469 540 35,000  Level FlightAware ADS-B
Mon 11:22:00 AM 29.7018 -98.5731 99° East 470 541 35,000  Level FlightAware ADS-B
Mon 11:22:30 AM 29.6952 -98.4975 96° East 471 542 35,000  Level FlightAware ADS-B
Mon 11:23:01 AM 29.6883 -98.4207 96° East 473 544 35,000  Level FlightAware ADS-B
Mon 11:23:41 AM 29.6791 -98.3210 96° East 473 544 35,000  Level FlightAware ADS-B
Mon 11:24:12 AM 29.6719 -98.2437 96° East 474 545 35,000  Level FlightAware ADS-B
Mon 11:24:48 AM 29.6634 -98.1521 96° East 474 545 35,000  Level FlightAware ADS-B
Mon 11:24:57 AM 29.6613 -98.1307 96° East 473 544 35,000  Level FlightAware ADS-B
Mon 11:25:27 AM 29.6544 -98.0567 96° East 473 544 35,000  Level FlightAware ADS-B
Mon 11:25:32 AM 29.6535 -98.0420 94° East 474 545 35,000  Level FlightAware ADS-B
Mon 11:26:03 AM 29.6496 -97.9649 93° East 473 544 35,000  Level FlightAware ADS-B
Mon 11:26:29 AM 29.6464 -97.9006 93° East 473 544 35,000  Level FlightAware ADS-B
Mon 11:26:33 AM 29.6459 -97.8901 93° East 472 543 35,000  Level FlightAware ADS-B
Mon 11:27:04 AM 29.6420 -97.8135 93° East 471 542 35,000  Level FlightAware ADS-B
Mon 11:27:14 AM 29.6407 -97.7895 94° East 471 542 35,000  Level FlightAware ADS-B
Mon 11:27:34 AM 29.6381 -97.7384 93° East 470 541 35,000 -240 Level FlightAware ADS-B
Mon 11:28:04 AM 29.6343 -97.6637 93° East 469 540 34,800 -615 Descending FlightAware ADS-B
Mon 11:28:13 AM 29.6331 -97.6414 94° East 470 541 34,600 -968 Descending FlightAware ADS-B
Mon 11:28:35 AM 29.6303 -97.5879 93° East 465 535 34,300 -968 Descending FlightAware ADS-B
Mon 11:28:44 AM 29.6290 -97.5647 94° East 468 539 34,100 -1,000 Descending FlightAware ADS-B
Mon 11:29:05 AM 29.6259 -97.5126 94° East 461 531 33,800 -894 Descending FlightAware ADS-B
Mon 11:29:31 AM 29.6223 -97.4507 94° East 463 533 33,400 -968 Descending FlightAware ADS-B
Mon 11:29:36 AM 29.6216 -97.4383 94° East 469 540 33,300 -1,000 Descending FlightAware ADS-B
Mon 11:30:07 AM 29.6173 -97.3615 94° East 472 543 32,800 -1,935 Descending FlightAware ADS-B
Mon 11:30:38 AM 29.6129 -97.2821 94° East 470 541 31,300 -3,097 Descending FlightAware ADS-B
Mon 11:31:09 AM 29.6086 -97.2071 94° East 471 542 29,600 -3,167 Descending FlightAware ADS-B
Mon 11:31:14 AM 29.6078 -97.1936 94° East 469 540 29,400 -2,800 Descending FlightAware ADS-B
Mon 11:31:39 AM 29.6043 -97.1326 94° East 462 532 28,200 -2,909 Descending FlightAware ADS-B
Mon 11:31:47 AM 29.6032 -97.1136 94° East 461 531 27,800 -2,800 Descending FlightAware ADS-B
Mon 11:32:09 AM 29.6001 -97.0588 94° East 453 521 26,800 -2,710 Descending FlightAware ADS-B
Mon 11:32:18 AM 29.5988 -97.0368 94° East 451 519 26,400 -2,600 Descending FlightAware ADS-B
Mon 11:32:39 AM 29.5960 -96.9871 94° East 444 511 25,500 -2,654 Descending FlightAware ADS-B
Mon 11:33:10 AM 29.5919 -96.9165 94° East 436 502 24,100 -2,656 Descending FlightAware ADS-B
Mon 11:33:40 AM 29.5878 -96.8481 94° East 427 491 22,800 -2,500 Descending FlightAware ADS-B
Mon 11:33:46 AM 29.5870 -96.8331 94° East 425 489 22,600 -2,400 Descending FlightAware ADS-B
Mon 11:34:10 AM 29.5837 -96.7800 94° East 418 481 21,600 -2,464 Descending FlightAware ADS-B
Mon 11:34:42 AM 29.5796 -96.7113 94° East 409 471 20,300 -2,381 Descending FlightAware ADS-B
Mon 11:35:13 AM 29.5754 -96.6441 94° East 417 480 19,100 -2,557 Descending FlightAware ADS-B
Mon 11:35:43 AM 29.5713 -96.5768 94° East 425 489 17,700 -2,900 Descending FlightAware ADS-B
Mon 11:36:13 AM 29.5670 -96.5087 94° East 417 480 16,200 -3,000 Descending FlightAware ADS-B
Mon 11:36:43 AM 29.5628 -96.4432 94° East 408 470 14,700 -2,951 Descending FlightAware ADS-B
Mon 11:37:14 AM 29.5588 -96.3785 94° East 398 458 13,200 -2,852 Descending FlightAware ADS-B
Mon 11:37:44 AM 29.5548 -96.3154 94° East 386 444 11,800 -2,500 Descending FlightAware ADS-B
Mon 11:38:14 AM 29.5505 -96.2552 95° East 369 425 10,700 -1,895 Descending FlightAware ADS-B
Mon 11:38:41 AM 29.5473 -96.2041 94° East 348 400 10,000 -1,400 Descending FlightAware ADS-B
Mon 11:38:44 AM 29.5471 -96.1986 92° East 346 398 10,000 -857 Level FlightAware ADS-B
Mon 11:38:48 AM 29.5471 -96.1924 90° East 346 398 9,900 -667 Descending FlightAware ADS-B
Mon 11:38:53 AM 29.5478 -96.1829 85° East 346 398 9,900  Level FlightAware ADS-B
Mon 11:38:56 AM 29.5486 -96.1767 82° East 346 398 9,900  Level FlightAware ADS-B
Mon 11:38:59 AM 29.5495 -96.1715 79° East 347 399 9,900  Level FlightAware ADS-B
Mon 11:39:05 AM 29.5519 -96.1616 74° East 348 400 9,900  Level FlightAware ADS-B
Mon 11:39:09 AM 29.5538 -96.1552 71° East 350 403 9,900  Level FlightAware ADS-B
Mon 11:39:12 AM 29.5558 -96.1497 67° East 350 403 9,900  Level FlightAware ADS-B
Mon 11:39:15 AM 29.5583 -96.1437 64° Northeast 351 404 9,900  Level FlightAware ADS-B
Mon 11:39:20 AM 29.5617 -96.1364 62° Northeast 351 404 9,900  Level FlightAware ADS-B
Mon 11:39:35 AM 29.5739 -96.1122 60° Northeast 352 405 9,900  Level FlightAware ADS-B
Mon 11:39:50 AM 29.5863 -96.0877 60° Northeast 352 405 9,900  Level FlightAware ADS-B
Mon 11:40:05 AM 29.5986 -96.0634 60° Northeast 353 406 9,900  Level FlightAware ADS-B
Mon 11:40:20 AM 29.6107 -96.0391 60° Northeast 349 402 9,900  Level FlightAware ADS-B
Mon 11:40:35 AM 29.6225 -96.0156 60° Northeast 329 379 9,900  Level FlightAware ADS-B
Mon 11:40:51 AM 29.6341 -95.9924 60° Northeast 308 354 9,900  Level FlightAware ADS-B
Mon 11:41:06 AM 29.6447 -95.9714 60° Northeast 292 336 9,900 -600 Level FlightAware ADS-B
Mon 11:41:21 AM 29.6547 -95.9516 60° Northeast 284 327 9,600 -1,200 Descending FlightAware ADS-B
Mon 11:41:26 AM 29.6576 -95.9459 60° Northeast 285 328 9,500 -1,500 Descending FlightAware ADS-B
Mon 11:41:29 AM 29.6599 -95.9421 55° Northeast 286 329 9,400 -2,571 Descending FlightAware ADS-B
Mon 11:41:33 AM 29.6633 -95.9374 50° Northeast 290 334 9,200 -2,571 Descending FlightAware ADS-B
Mon 11:41:36 AM 29.6669 -95.9335 43° Northeast 291 335 9,100 -1,714 Descending FlightAware ADS-B
Mon 11:41:40 AM 29.6704 -95.9303 38° Northeast 291 335 9,000 -1,714 Descending FlightAware ADS-B
Mon 11:41:43 AM 29.6738 -95.9278 33° Northeast 293 337 8,900 -1,000 Descending FlightAware ADS-B
Mon 11:41:46 AM 29.6775 -95.9254 29° Northeast 294 338 8,900 -1,000 Level FlightAware ADS-B
Mon 11:41:49 AM 29.6817 -95.9234 22° Northeast 295 339 8,800 -1,714 Descending FlightAware ADS-B
Mon 11:41:53 AM 29.6872 -95.9214 18° North 295 339 8,700 -1,600 Descending FlightAware ADS-B
Mon 11:42:04 AM 29.7020 -95.9172 14° North 294 338 8,400 -1,556 Descending FlightAware ADS-B
Mon 11:42:20 AM 29.7223 -95.9120 13° North 292 336 8,000 -1,548 Descending FlightAware ADS-B
Mon 11:42:35 AM 29.7430 -95.9065 13° North 293 337 7,600 -1,548 Descending FlightAware ADS-B
Mon 11:42:51 AM 29.7629 -95.9012 13° North 292 336 7,200 -1,355 Descending FlightAware ADS-B
Mon 11:43:06 AM 29.7837 -95.8957 13° North 290 334 6,900 -563 Descending FlightAware ADS-B
Mon 11:43:23 AM 29.8050 -95.8902 13° North 288 331 6,900  Level FlightAware ADS-B
Mon 11:43:32 AM 29.8178 -95.8869 13° North 287 330 6,900  Level FlightAware ADS-B
Mon 11:43:47 AM 29.8374 -95.8818 13° North 287 330 6,900  Level FlightAware ADS-B
Mon 11:43:57 AM 29.8501 -95.8785 13° North 286 329 6,900  Level FlightAware ADS-B
Mon 11:44:03 AM 29.8572 -95.8763 15° North 286 329 6,900  Level FlightAware ADS-B
Mon 11:44:06 AM 29.8615 -95.8743 22° Northeast 282 325 6,900  Level FlightAware ADS-B
Mon 11:44:09 AM 29.8651 -95.8722 27° Northeast 280 322 6,900 -750 Level FlightAware ADS-B
Mon 11:44:14 AM 29.8699 -95.8691 29° Northeast 280 322 6,800 -1,500 Descending FlightAware ADS-B
Mon 11:44:17 AM 29.8736 -95.8663 33° Northeast 280 322 6,700 -750 Descending FlightAware ADS-B
Mon 11:44:22 AM 29.8780 -95.8625 37° Northeast 278 320 6,700 -545 Level FlightAware ADS-B
Mon 11:44:28 AM 29.8848 -95.8563 38° Northeast 278 320 6,600 -1,200 Descending FlightAware ADS-B
Mon 11:44:32 AM 29.8884 -95.8534 35° Northeast 281 323 6,500 -947 Descending FlightAware ADS-B
Mon 11:44:47 AM 29.9048 -95.8412 33° Northeast 282 325 6,300 -1,000 Descending FlightAware ADS-B
Mon 11:45:02 AM 29.9216 -95.8288 33° Northeast 277 319 6,000 -800 Descending FlightAware ADS-B
Mon 11:45:17 AM 29.9377 -95.8169 33° Northeast 265 305 5,900 -194 Descending FlightAware ADS-B
Mon 11:45:33 AM 29.9532 -95.8056 32° Northeast 249 287 5,900 -194 Level FlightAware ADS-B
Mon 11:45:48 AM 29.9679 -95.7950 32° Northeast 244 281 5,800 -692 Descending FlightAware ADS-B
Mon 11:45:59 AM 29.9788 -95.7869 33° Northeast 244 281 5,600 -1,125 Descending FlightAware ADS-B
Mon 11:46:04 AM 29.9831 -95.7833 36° Northeast 244 281 5,500 -667 Descending FlightAware ADS-B
Mon 11:46:08 AM 29.9866 -95.7797 42° Northeast 241 277 5,500 -750 Level FlightAware ADS-B
Mon 11:46:12 AM 29.9890 -95.7761 52° Northeast 240 276 5,400 -1,714 Descending FlightAware ADS-B
Mon 11:46:15 AM 29.9909 -95.7723 60° Northeast 238 274 5,300 -1,000 Descending FlightAware ADS-B
Mon 11:46:18 AM 29.9920 -95.7688 70° East 235 270 5,300 -857 Level FlightAware ADS-B
Mon 11:46:22 AM 29.9928 -95.7646 78° East 233 268 5,200 -1,500 Descending FlightAware ADS-B
Mon 11:46:26 AM 29.9930 -95.7599 87° East 231 266 5,100 -750 Descending FlightAware ADS-B
Mon 11:46:30 AM 29.9929 -95.7545 91° East 231 266 5,100 -800 Level FlightAware ADS-B
Mon 11:46:41 AM 29.9921 -95.7414 94° East 230 265 4,900 -462 Descending FlightAware ADS-B
Mon 11:46:56 AM 29.9918 -95.7226 91° East 225 259 4,900  Level FlightAware ADS-B
Mon 11:47:11 AM 29.9920 -95.7048 89° East 223 257 4,900  Level FlightAware ADS-B
Mon 11:47:26 AM 29.9925 -95.6870 88° East 222 255 4,900  Level FlightAware ADS-B
Mon 11:47:41 AM 29.9928 -95.6696 89° East 210 242 4,900  Level FlightAware ADS-B
Mon 11:47:56 AM 29.9930 -95.6531 89° East 204 235 4,900 -581 Level FlightAware ADS-B
Mon 11:48:12 AM 29.9929 -95.6365 90° East 203 234 4,600 -1,161 Descending FlightAware ADS-B
Mon 11:48:27 AM 29.9928 -95.6201 90° East 203 234 4,300 -1,200 Descending FlightAware ADS-B
Mon 11:48:42 AM 29.9928 -95.6035 90° East 197 227 4,000 -1,000 Descending FlightAware ADS-B
Mon 11:48:57 AM 29.9930 -95.5878 89° East 196 226 3,800 -692 Descending FlightAware ADS-B
Mon 11:49:08 AM 29.9930 -95.5771 90° East 201 231 3,700 -960 Descending FlightAware ADS-B
Mon 11:49:22 AM 29.9930 -95.5620 90° East 201 231 3,400 -1,333 Descending FlightAware ADS-B
Mon 11:49:35 AM 29.9930 -95.5475 90° East 199 229 3,100 -1,034 Descending FlightAware ADS-B
Mon 11:49:51 AM 29.9930 -95.5310 90° East 195 224 2,900 -968 Descending FlightAware ADS-B
Mon 11:50:06 AM 29.9931 -95.5154 90° East 189 217 2,600 -1,043 Descending FlightAware ADS-B
Mon 11:50:14 AM 29.9932 -95.5072 89° East 184 212 2,500 -960 Descending FlightAware ADS-B
Mon 11:50:31 AM 29.9932 -95.4916 90° East 177 204 2,200 -818 Descending FlightAware ADS-B
Mon 11:50:36 AM 29.9932 -95.4868 90° East 177 204 2,200 -923 Level FlightAware ADS-B
Mon 11:50:44 AM 29.9932 -95.4787 90° East 176 203 2,000 -1,200 Descending FlightAware ADS-B
Mon 11:50:51 AM 29.9932 -95.4726 90° East 171 197 1,900 -857 Descending FlightAware ADS-B
Mon 11:50:58 AM 29.9932 -95.4662 90° East 170 196 1,800 -857 Descending FlightAware ADS-B
Mon 11:51:12 AM 29.9933 -95.4538 89° East 164 189 1,600 -774 Descending FlightAware ADS-B
Mon 11:51:29 AM 29.9933 -95.4389 90° East 158 182 1,400 -667 Descending FlightAware ADS-B
Mon 11:51:39 AM 29.9934 -95.4308 89° East 151 174 1,300 -692 Descending FlightAware ADS-B
Mon 11:51:55 AM 29.9934 -95.4188 90° East 142 163 1,100 -857 Descending FlightAware ADS-B
Mon 11:52:00 AM 29.9934 -95.4145 90° East 141 162 1,000 -923 Descending FlightAware ADS-B
Mon 11:52:08 AM 29.9934 -95.4087 90° East 138 159 900 -857 Descending FlightAware ADS-B
Mon 11:52:14 AM 29.9934 -95.4040 90° East 140 161 800 -706 Descending FlightAware ADS-B
Mon 11:52:25 AM 29.9935 -95.3964 89° East 140 161 700 -706 Descending FlightAware ADS-B
Mon 11:52:31 AM 29.9935 -95.3916 90° East 138 159 600 -667 Descending FlightAware ADS-B
Mon 11:52:43 AM 29.9934 -95.3833 91° East 137 158 500 -667 Descending FlightAware ADS-B
Mon 11:52:49 AM 29.9934 -95.3790 90° East 139 160 400 -571 Descending FlightAware ADS-B
Mon 11:53:04 AM 29.9935 -95.3678 89° East 139 160 300 -720 Descending FlightAware ADS-B
Mon 11:53:14 AM 29.9934 -95.3604 91° East 142 163 100 -1,200 Descending FlightAware ADS-B

Login

Don't have an account? Register now (free) for customized features, flight alerts, and more!